Time;durP1;ratioP1;P1;durP2;ratioP2;P2;SDS_P1;SDS_P2;PMS_P1;PMS_P2;Temp;Humidity;BMP_temperature;BMP_pressure;BME280_temperature;BME280_humidity;BME280_pressure;Samples;Min_cycle;Max_cycle;Signal;HPM_P1;HPM_P2
2022/09/23 00:00:03;;;;;;;;;;;;;;;4.11;100.00;96158.31;1033641;28;19932;-65
2022/09/23 00:00:33;;;;;;;;;;;;;;;4.11;100.00;96152.34;1031046;28;19910;-66
2022/09/23 00:01:06;;;;;;;;;;;;;;;4.12;100.00;96153.94;1026656;28;19941;-66
2022/09/23 00:01:37;;;;;;;;;;;;;;;4.12;100.00;96153.94;1037545;28;19913;-65
2022/09/23 00:02:07;;;;;;;;;;;;;;;4.12;100.00;96153.94;1035028;28;20291;-68
2022/09/23 00:02:38;;;;;;;;;;;;;;;4.12;100.00;96153.94;1031334;28;19910;-67
2022/09/23 00:03:08;;;;;;;;;;;;;;;3.90;100.00;96120.53;1035914;28;19995;-65
2022/09/23 00:03:44;;;;;;;;;;;;;;;4.10;100.00;96156.75;1036315;28;19909;-66
2022/09/23 00:04:14;;;;;;;;;;;;;;;4.11;100.00;96152.34;1039210;28;19925;-66
2022/09/23 00:04:45;;;;;;;;;;;;;;;4.09;100.00;96156.94;1031697;28;19939;-68
2022/09/23 00:05:15;;;;;;;;;;;;;;;4.09;100.00;96149.97;1028777;28;19956;-66
2022/09/23 00:05:50;;;;;;;;;;;;;;;4.11;100.00;96160.13;1027103;28;20327;-66
2022/09/23 00:06:21;;;;;;;;;;;;;;;4.09;100.00;96149.97;1035081;28;19910;-65
2022/09/23 00:06:51;;;;;;;;;;;;;;;4.09;100.00;96159.53;1029572;28;20284;-66
2022/09/23 00:07:22;;;;;;;;;;;;;;;4.08;100.00;96156.16;1022975;28;19910;-67
2022/09/23 00:07:53;;;;;;;;;;;;;;;4.08;100.00;96157.94;1031132;28;19936;-67
2022/09/23 00:08:24;;;;;;;;;;;;;;;4.08;100.00;96150.16;1040456;28;20003;-66
2022/09/23 00:08:54;;;;;;;;;;;;;;;4.08;100.00;96158.75;1031118;28;20368;-66
2022/09/23 00:09:25;;;;;;;;;;;;;;;4.07;100.00;96158.97;1026923;28;19933;-70
2022/09/23 00:09:55;;;;;;;;;;;;;;;4.08;100.00;96157.94;1036281;28;19910;-66
2022/09/23 00:10:26;;;;;;;;;;;;;;;4.05;100.00;96153.97;1036445;28;19917;-67
2022/09/23 00:10:56;;;;;;;;;;;;;;;4.04;100.00;96157.59;1033246;28;19906;-66
2022/09/23 00:11:27;;;;;;;;;;;;;;;4.03;100.00;96160.41;1034813;28;19977;-67
2022/09/23 00:11:58;;;;;;;;;;;;;;;4.03;100.00;96156.00;1030971;28;20319;-69
2022/09/23 00:12:29;;;;;;;;;;;;;;;4.03;100.00;96160.41;1033249;28;19920;-68
2022/09/23 00:12:59;;;;;;;;;;;;;;;4.00;100.00;96162.41;1026860;28;19937;-65
2022/09/23 00:13:29;;;;;;;;;;;;;;;3.99;100.00;96153.03;1035070;28;19914;-67
2022/09/23 00:14:00;;;;;;;;;;;;;;;3.99;100.00;96165.19;1030757;28;19916;-66
2022/09/23 00:14:30;;;;;;;;;;;;;;;3.98;100.00;96154.00;1030956;28;19956;-66
2022/09/23 00:15:01;;;;;;;;;;;;;;;3.97;100.00;96155.03;1027099;28;20447;-65
2022/09/23 00:15:32;;;;;;;;;;;;;;;3.97;100.00;96152.44;1026962;28;20001;-68
2022/09/23 00:16:03;;;;;;;;;;;;;;;3.96;100.00;96153.44;1029584;28;20008;-67
2022/09/23 00:16:34;;;;;;;;;;;;;;;3.96;100.00;96156.03;1031106;28;19906;-66
2022/09/23 00:17:04;;;;;;;;;;;;;;;3.96;100.00;96155.25;1022945;29;19960;-66
2022/09/23 00:17:34;;;;;;;;;;;;;;;3.95;100.00;96157.03;1032516;28;19941;-69
2022/09/23 00:18:06;;;;;;;;;;;;;;;3.96;100.00;96155.25;1030839;28;20399;-70
2022/09/23 00:18:37;;;;;;;;;;;;;;;3.94;100.00;96155.44;1027065;28;19910;-67
2022/09/23 00:19:07;;;;;;;;;;;;;;;3.93;100.00;96155.66;1038705;28;19996;-64
2022/09/23 00:19:39;;;;;;;;;;;;;;;3.93;100.00;96160.88;1030996;28;19914;-67
2022/09/23 00:20:09;;;;;;;;;;;;;;;3.73;100.00;96130.63;1030740;28;19917;-67
2022/09/23 00:20:40;;;;;;;;;;;;;;;3.91;100.00;96155.88;1027274;28;19996;-67
2022/09/23 00:21:11;;;;;;;;;;;;;;;3.92;100.00;96160.06;1034135;28;19945;-68
2022/09/23 00:21:41;;;;;;;;;;;;;;;3.91;100.00;96158.47;1039274;28;19912;-67
2022/09/23 00:22:12;;;;;;;;;;;;;;;3.89;100.00;96160.50;1034820;28;20299;-67
2022/09/23 00:22:43;;;;;;;;;;;;;;;3.89;100.00;96155.28;1024695;28;20312;-66
2022/09/23 00:23:13;;;;;;;;;;;;;;;3.89;100.00;96154.47;1030909;28;19914;-67
2022/09/23 00:23:43;;;;;;;;;;;;;;;3.88;100.00;96158.88;1034972;28;20295;-66
2022/09/23 00:24:14;;;;;;;;;;;;;;;3.87;100.00;96157.28;1035106;28;19913;-65
2022/09/23 00:24:45;;;;;;;;;;;;;;;3.86;100.00;96158.31;1030968;28;19910;-67
2022/09/23 00:25:15;;;;;;;;;;;;;;;3.86;100.00;96157.53;1029306;28;19920;-69
2022/09/23 00:25:54;;;;;;;;;;;;;;;3.85;100.00;96154.09;1026878;28;19990;-68
2022/09/23 00:26:24;;;;;;;;;;;;;;;3.82;100.00;96149.31;1034920;28;19906;-69
2022/09/23 00:26:54;;;;;;;;;;;;;;;3.82;100.00;96148.53;1030905;28;20377;-65
2022/09/23 00:27:28;;;;;;;;;;;;;;;3.81;100.00;96157.34;1027002;28;20307;-67
2022/09/23 00:27:58;;;;;;;;;;;;;;;3.80;100.00;96150.56;1030863;28;19909;-65
2022/09/23 00:28:29;;;;;;;;;;;;;;;3.80;100.00;96155.75;1026743;28;20368;-68
2022/09/23 00:28:59;;;;;;;;;;;;;;;3.79;100.00;96149.78;1031015;28;19910;-69
2022/09/23 00:29:30;;;;;;;;;;;;;;;3.78;100.00;96153.34;1034989;28;19910;-67
2022/09/23 00:30:01;;;;;;;;;;;;;;;3.76;100.00;96152.78;1031005;28;19905;-65
2022/09/23 00:30:31;;;;;;;;;;;;;;;3.75;100.00;96158.97;1022806;29;19906;-68
2022/09/23 00:31:08;;;;;;;;;;;;;;;3.74;100.00;96157.38;1030527;28;20004;-67
2022/09/23 00:31:39;;;;;;;;;;;;;;;3.73;100.00;96148.81;1034848;28;20674;-68
2022/09/23 00:32:09;;;;;;;;;;;;;;;3.74;100.00;96155.56;1034905;28;19930;-64
2022/09/23 00:32:39;;;;;;;;;;;;;;;3.72;100.00;96149.81;1031666;28;20290;-66
2022/09/23 00:33:10;;;;;;;;;;;;;;;3.72;100.00;96152.41;1034770;28;20489;-67
2022/09/23 00:33:40;;;;;;;;;;;;;;;3.74;100.00;96152.19;1030949;28;19926;-67
2022/09/23 00:34:11;;;;;;;;;;;;;;;3.73;100.00;96150.59;1034975;28;19968;-67
2022/09/23 00:34:42;;;;;;;;;;;;;;;3.74;100.00;96150.38;1037104;28;20205;-66
2022/09/23 00:35:13;;;;;;;;;;;;;;;3.73;100.00;96155.78;1030924;28;20009;-66
2022/09/23 00:35:43;;;;;;;;;;;;;;;3.73;100.00;96151.41;1034973;28;19920;-66
2022/09/23 00:36:14;;;;;;;;;;;;;;;3.74;100.00;96152.97;1029154;28;20403;-66
2022/09/23 00:36:44;;;;;;;;;;;;;;;3.73;100.00;96148.00;1038962;28;20414;-67
2022/09/23 00:37:15;;;;;;;;;;;;;;;3.73;100.00;96145.41;1043085;28;19909;-67
2022/09/23 00:37:45;;;;;;;;;;;;;;;3.74;100.00;96147.00;1034906;28;19917;-65
2022/09/23 00:38:16;;;;;;;;;;;;;;;3.76;100.00;96145.00;1026963;28;19918;-69
2022/09/23 00:38:46;;;;;;;;;;;;;;;3.76;100.00;96152.78;1026742;28;20360;-68
2022/09/23 00:39:16;;;;;;;;;;;;;;;3.77;100.00;96142.19;1030841;28;20086;-67
2022/09/23 00:39:47;;;;;;;;;;;;;;;3.76;100.00;96147.59;1045462;28;19941;-67
2022/09/23 00:40:17;;;;;;;;;;;;;;;3.75;100.00;96141.59;1039131;28;20438;-67
2022/09/23 00:40:48;;;;;;;;;;;;;;;3.76;100.00;96145.78;1030879;28;20461;-68
2022/09/23 00:41:19;;;;;;;;;;;;;;;3.78;100.00;96145.56;1030107;28;19910;-67
2022/09/23 00:41:49;;;;;;;;;;;;;;;3.77;100.00;96147.38;1043066;28;20046;-65
2022/09/23 00:42:20;;;;;;;;;;;;;;;3.77;100.00;96138.78;1030923;28;20319;-68
2022/09/23 00:42:50;;;;;;;;;;;;;;;3.78;100.00;96142.97;1026774;28;19917;-68
2022/09/23 00:43:36;;;;;;;;;;;;;;;3.77;100.00;96142.19;1038077;28;20428;-67
2022/09/23 00:44:26;;;;;;;;;;;;;;;3.77;100.00;96141.38;1034974;28;20314;-69
2022/09/23 00:44:57;;;;;;;;;;;;;;;3.78;100.00;96140.38;1038805;28;19920;-68
2022/09/23 00:45:27;;;;;;;;;;;;;;;3.79;100.00;96136.78;1030807;28;20225;-64
2022/09/23 00:45:58;;;;;;;;;;;;;;;3.78;100.00;96138.56;1029605;28;19906;-65
2022/09/23 00:46:29;;;;;;;;;;;;;;;3.79;100.00;96139.38;1030719;28;19918;-67
2022/09/23 00:47:00;;;;;;;;;;;;;;;3.77;100.00;96136.19;1038770;28;19909;-68
2022/09/23 00:47:42;;;;;;;;;;;;;;;3.78;100.00;96135.19;1034998;28;19956;-69
2022/09/23 00:48:13;;;;;;;;;;;;;;;3.78;100.00;96130.00;1030894;28;19997;-64
2022/09/23 00:48:44;;;;;;;;;;;;;;;3.77;100.00;96129.19;1039003;28;20302;-67
2022/09/23 00:49:16;;;;;;;;;;;;;;;3.77;100.00;96134.41;1030738;28;20272;-66
2022/09/23 00:49:49;;;;;;;;;;;;;;;3.77;100.00;96131.78;1030735;28;20045;-67
2022/09/23 00:50:26;;;;;;;;;;;;;;;3.77;100.00;96134.41;1039041;28;20294;-66
2022/09/23 00:50:57;;;;;;;;;;;;;;;3.78;100.00;96132.59;1038456;28;19905;-65
2022/09/23 00:51:30;;;;;;;;;;;;;;;3.78;100.00;96127.41;1027216;28;20369;-66
2022/09/23 00:52:01;;;;;;;;;;;;;;;3.78;100.00;96132.59;1031045;28;20131;-67
2022/09/23 00:52:32;;;;;;;;;;;;;;;3.78;100.00;96130.00;1034990;28;19910;-66
2022/09/23 00:53:04;;;;;;;;;;;;;;;3.79;100.00;96129.00;1034823;28;19989;-69
2022/09/23 00:53:34;;;;;;;;;;;;;;;3.79;100.00;96134.19;1034787;28;19909;-67
2022/09/23 00:54:05;;;;;;;;;;;;;;;3.78;100.00;96130.00;1034969;28;20420;-67
2022/09/23 00:54:35;;;;;;;;;;;;;;;3.77;100.00;96125.81;1039128;28;19995;-65
2022/09/23 00:55:29;;;;;;;;;;;;;;;3.80;100.00;96130.59;1036462;28;19932;-67
2022/09/23 00:56:01;;;;;;;;;;;;;;;3.82;100.00;96132.97;1030617;28;19910;-65
2022/09/23 00:56:32;;;;;;;;;;;;;;;3.80;100.00;96133.19;1026779;28;20292;-66
2022/09/23 00:57:04;;;;;;;;;;;;;;;3.82;100.00;96128.56;1030989;28;19996;-65
2022/09/23 00:57:36;;;;;;;;;;;;;;;3.82;100.00;96125.97;1028887;28;19917;-64
2022/09/23 00:58:06;;;;;;;;;;;;;;;3.82;100.00;96122.59;1031051;28;19910;-67
2022/09/23 00:58:37;;;;;;;;;;;;;;;3.82;100.00;96130.38;1038994;28;20355;-67
2022/09/23 00:59:08;;;;;;;;;;;;;;;3.82;100.00;96122.59;1030926;28;19913;-66
2022/09/23 00:59:38;;;;;;;;;;;;;;;3.82;100.00;96117.38;1034886;28;20000;-68
2022/09/23 01:00:09;;;;;;;;;;;;;;;3.82;100.00;96122.59;1036813;28;20280;-68
2022/09/23 01:00:40;;;;;;;;;;;;;;;3.82;100.00;96117.38;1039213;28;20279;-66
2022/09/23 01:01:12;;;;;;;;;;;;;;;3.82;100.00;96118.19;1026178;28;19961;-66
2022/09/23 01:01:42;;;;;;;;;;;;;;;3.82;100.00;96123.38;1031526;28;20478;-67
2022/09/23 01:02:13;;;;;;;;;;;;;;;3.81;100.00;96121.78;1034904;28;19940;-67
2022/09/23 01:02:43;;;;;;;;;;;;;;;3.81;100.00;96121.78;1030949;28;19910;-67
2022/09/23 01:03:14;;;;;;;;;;;;;;;3.81;100.00;96121.78;1022863;29;19914;-66
2022/09/23 01:03:44;;;;;;;;;;;;;;;3.80;100.00;96122.81;1030316;28;19985;-64
2022/09/23 01:04:14;;;;;;;;;;;;;;;3.80;100.00;96122.81;1035005;28;19913;-65
2022/09/23 01:04:45;;;;;;;;;;;;;;;3.81;100.00;96121.78;1030925;28;19942;-68
2022/09/23 01:05:16;;;;;;;;;;;;;;;3.81;100.00;96118.41;1030971;28;20092;-67
2022/09/23 01:05:46;;;;;;;;;;;;;;;3.80;100.00;96114.22;1030854;28;20470;-65
2022/09/23 01:06:17;;;;;;;;;;;;;;;3.80;100.00;96124.59;1031042;28;19906;-69
2022/09/23 01:06:47;;;;;;;;;;;;;;;3.79;100.00;96126.41;1034900;28;19913;-68
2022/09/23 01:07:17;;;;;;;;;;;;;;;3.79;100.00;96118.63;1035042;28;19910;-65
2022/09/23 01:07:48;;;;;;;;;;;;;;;3.78;100.00;96123.00;1026801;28;20447;-67
2022/09/23 01:08:18;;;;;;;;;;;;;;;3.77;100.00;96118.03;1034823;28;19905;-65
2022/09/23 01:08:48;;;;;;;;;;;;;;;3.77;100.00;96110.25;1030679;28;19910;-65
2022/09/23 01:09:19;;;;;;;;;;;;;;;3.77;100.00;96115.44;1039077;28;19905;-69
2022/09/23 01:09:49;;;;;;;;;;;;;;;3.74;100.00;96115.84;1038946;28;19913;-66
2022/09/23 01:10:20;;;;;;;;;;;;;;;3.74;100.00;96115.84;1036496;28;20378;-65
2022/09/23 01:10:59;;;;;;;;;;;;;;;3.75;100.00;96112.25;1032716;28;19952;-66
2022/09/23 01:11:33;;;;;;;;;;;;;;;3.74;100.00;96106.25;1026837;28;20254;-67
2022/09/23 01:12:21;;;;;;;;;;;;;;;3.73;100.00;96114.28;1026800;28;19918;-66
2022/09/23 01:12:55;;;;;;;;;;;;;;;3.74;100.00;96110.66;1030850;28;19945;-66
2022/09/23 01:13:46;;;;;;;;;;;;;;;3.74;100.00;96110.66;1034874;28;19929;-68
2022/09/23 01:14:33;;;;;;;;;;;;;;;3.72;100.00;96102.28;1036812;28;20476;-66
2022/09/23 01:15:06;;;;;;;;;;;;;;;3.71;100.00;96106.69;1035029;28;19945;-67
2022/09/23 01:15:36;;;;;;;;;;;;;;;3.71;100.00;96105.88;1030847;28;19910;-67
2022/09/23 01:16:13;;;;;;;;;;;;;;;3.71;100.00;96106.69;1026586;28;19941;-68
2022/09/23 01:16:46;;;;;;;;;;;;;;;3.72;100.00;96107.47;1030910;28;19960;-67
2022/09/23 01:17:32;;;;;;;;;;;;;;;3.72;100.00;96105.69;1034906;28;19909;-66
2022/09/23 01:18:03;;;;;;;;;;;;;;;3.73;100.00;96109.06;1038173;28;19987;-66
2022/09/23 01:18:45;;;;;;;;;;;;;;;3.73;100.00;96103.88;1038855;28;19905;-68
2022/09/23 01:19:16;;;;;;;;;;;;;;;3.72;100.00;96102.28;1041598;28;19905;-67
2022/09/23 01:19:49;;;;;;;;;;;;;;;3.72;100.00;96104.88;1033154;28;19909;-65
2022/09/23 01:20:25;;;;;;;;;;;;;;;3.72;100.00;96104.88;1034802;28;19910;-66
2022/09/23 01:21:08;;;;;;;;;;;;;;;3.73;100.00;96106.50;1035430;28;19905;-66
2022/09/23 01:21:43;;;;;;;;;;;;;;;3.71;100.00;96105.88;1041740;28;20362;-68
2022/09/23 01:22:21;;;;;;;;;;;;;;;3.72;100.00;96102.28;1035764;28;19916;-65
2022/09/23 01:22:51;;;;;;;;;;;;;;;3.72;100.00;96104.88;1030774;28;19917;-66
2022/09/23 01:23:37;;;;;;;;;;;;;;;3.71;100.00;96103.28;1036579;28;19960;-67
2022/09/23 01:24:16;;;;;;;;;;;;;;;3.70;100.00;96101.72;1034881;28;20327;-67
2022/09/23 01:24:47;;;;;;;;;;;;;;;3.68;100.00;96096.72;1030866;28;19910;-67
2022/09/23 01:25:30;;;;;;;;;;;;;;;3.68;100.00;96104.50;1039012;28;19906;-67
2022/09/23 01:26:05;;;;;;;;;;;;;;;3.69;100.00;96102.69;1030373;28;19969;-66
2022/09/23 01:26:51;;;;;;;;;;;;;;;3.68;100.00;96096.72;1019358;28;20400;-66
2022/09/23 01:27:21;;;;;;;;;;;;;;;3.51;100.00;96074.88;1027490;28;20121;-67
2022/09/23 01:28:10;;;;;;;;;;;;;;;3.67;100.00;96099.53;1029560;28;20146;-68
2022/09/23 01:29:01;;;;;;;;;;;;;;;3.66;100.00;96092.75;1027313;28;19929;-68
2022/09/23 01:29:50;;;;;;;;;;;;;;;3.63;100.00;96093.97;1036503;28;19910;-66
2022/09/23 01:30:39;;;;;;;;;;;;;;;3.63;100.00;96096.56;1036728;28;20371;-64
2022/09/23 01:31:12;;;;;;;;;;;;;;;3.62;100.00;96097.56;1035798;28;19920;-67
2022/09/23 01:31:42;;;;;;;;;;;;;;;3.63;100.00;96093.19;1035608;28;19909;-65
2022/09/23 01:32:12;;;;;;;;;;;;;;;3.63;100.00;96098.38;1035730;28;20462;-64
2022/09/23 01:32:43;;;;;;;;;;;;;;;3.63;100.00;96098.38;1035813;28;19925;-66
2022/09/23 01:33:17;;;;;;;;;;;;;;;3.62;100.00;96097.56;1035462;28;19910;-66
2022/09/23 01:33:50;;;;;;;;;;;;;;;3.66;100.00;96090.16;1036171;28;19909;-68
2022/09/23 01:34:24;;;;;;;;;;;;;;;3.65;100.00;96096.34;1039762;28;20359;-66
2022/09/23 01:35:03;;;;;;;;;;;;;;;3.64;100.00;96100.75;1035423;28;19944;-64
2022/09/23 01:35:34;;;;;;;;;;;;;;;3.64;100.00;96094.75;1031539;28;19913;-65
2022/09/23 01:36:13;;;;;;;;;;;;;;;3.64;100.00;96097.34;1031526;28;19917;-67
2022/09/23 01:36:50;;;;;;;;;;;;;;;3.63;100.00;96098.38;1039689;28;20466;-66
2022/09/23 01:37:24;;;;;;;;;;;;;;;3.60;100.00;96101.38;1031628;28;19914;-69
2022/09/23 01:37:57;;;;;;;;;;;;;;;3.59;100.00;96102.38;1031478;28;19909;-67
2022/09/23 01:38:46;;;;;;;;;;;;;;;3.54;100.00;96101.19;1033251;28;19902;-64
2022/09/23 01:39:19;;;;;;;;;;;;;;;3.50;100.00;96094.06;1037931;28;20359;-67
2022/09/23 01:39:53;;;;;;;;;;;;;;;3.47;100.00;96095.25;1035514;28;20028;-65
2022/09/23 01:40:26;;;;;;;;;;;;;;;3.45;100.00;96097.25;1034797;28;19913;-65
2022/09/23 01:41:11;;;;;;;;;;;;;;;3.44;100.00;96087.09;1028124;28;20098;-66
2022/09/23 01:41:44;;;;;;;;;;;;;;;3.40;100.00;96088.53;1030238;28;19917;-67
2022/09/23 01:42:18;;;;;;;;;;;;;;;3.37;100.00;96094.13;1034258;28;20051;-70
2022/09/23 01:42:56;;;;;;;;;;;;;;;3.35;100.00;96085.75;1041663;28;20302;-69
2022/09/23 01:43:30;;;;;;;;;;;;;;;3.33;100.00;96088.56;1035349;28;19956;-68
2022/09/23 01:44:00;;;;;;;;;;;;;;;3.33;100.00;96092.97;1037527;28;19909;-69
2022/09/23 01:44:41;;;;;;;;;;;;;;;3.31;100.00;96087.97;1027618;28;20292;-68
2022/09/23 01:45:12;;;;;;;;;;;;;;;3.29;100.00;96083.00;1031505;28;19910;-66
2022/09/23 01:45:45;;;;;;;;;;;;;;;3.31;100.00;96090.56;1031626;28;19910;-67
2022/09/23 01:46:26;;;;;;;;;;;;;;;3.31;100.00;96085.38;1031671;28;19910;-66
2022/09/23 01:47:09;;;;;;;;;;;;;;;3.30;100.00;96087.16;1039727;28;19932;-67
2022/09/23 01:47:56;;;;;;;;;;;;;;;3.33;100.00;96091.16;1031393;28;19912;-65
2022/09/23 01:48:37;;;;;;;;;;;;;;;3.31;100.00;96085.38;1031263;28;19926;-68
2022/09/23 01:49:09;;;;;;;;;;;;;;;3.29;100.00;96085.59;1031556;28;20334;-65
2022/09/23 01:49:43;;;;;;;;;;;;;;;3.28;100.00;96086.56;1027408;28;19914;-66
2022/09/23 01:51:06;;;;;;;;;;;;;;;3.23;100.00;96085.63;1022882;29;19945;-65
2022/09/23 01:51:37;;;;;;;;;;;;;;;3.20;100.00;96080.84;1028796;28;19964;-67
2022/09/23 01:52:15;;;;;;;;;;;;;;;3.20;100.00;96089.41;1035689;28;19909;-67
2022/09/23 01:52:46;;;;;;;;;;;;;;;3.17;100.00;96081.25;1035682;28;19996;-66
2022/09/23 01:53:36;;;;;;;;;;;;;;;3.17;100.00;96081.25;1028707;28;19914;-67
2022/09/23 01:54:11;;;;;;;;;;;;;;;3.17;100.00;96083.84;1023559;29;19958;-68
2022/09/23 01:54:53;;;;;;;;;;;;;;;3.16;100.00;96077.09;1030955;28;20345;-66
2022/09/23 01:55:25;;;;;;;;;;;;;;;3.15;100.00;96081.44;1035683;28;19909;-65
2022/09/23 01:55:57;;;;;;;;;;;;;;;3.14;100.00;96079.06;1031508;28;19909;-65
2022/09/23 01:56:29;;;;;;;;;;;;;;;3.13;100.00;96085.28;1035593;28;19912;-67
2022/09/23 01:57:01;;;;;;;;;;;;;;;3.11;100.00;96082.88;1035488;28;19910;-65
2022/09/23 01:57:57;;;;;;;;;;;;;;;3.10;100.00;96080.50;1037517;28;19910;-65
2022/09/23 01:58:34;;;;;;;;;;;;;;;3.05;100.00;96087.09;1037399;28;19905;-68
2022/09/23 01:59:05;;;;;;;;;;;;;;;3.05;100.00;96087.09;1035333;28;19905;-66
2022/09/23 01:59:56;;;;;;;;;;;;;;;3.04;100.00;96085.50;1039611;28;19985;-67
2022/09/23 02:00:26;;;;;;;;;;;;;;;3.03;100.00;96083.13;1031527;28;19956;-66
2022/09/23 02:00:58;;;;;;;;;;;;;;;3.02;100.00;96087.50;1026853;28;20446;-68
2022/09/23 02:01:30;;;;;;;;;;;;;;;3.01;100.00;96080.72;1027533;28;20009;-70
2022/09/23 02:02:13;;;;;;;;;;;;;;;3.01;100.00;96085.91;1027112;28;20232;-69
2022/09/23 02:02:48;;;;;;;;;;;;;;;3.00;100.00;96084.31;1031451;28;20295;-65
2022/09/23 02:03:30;;;;;;;;;;;;;;;2.99;100.00;96082.75;1035129;28;20003;-69
2022/09/23 02:04:03;;;;;;;;;;;;;;;2.99;100.00;96082.75;1035375;28;19917;-68
2022/09/23 02:04:38;;;;;;;;;;;;;;;2.99;100.00;96085.34;1031460;28;19906;-64
2022/09/23 02:05:08;;;;;;;;;;;;;;;2.99;100.00;96085.34;1035299;28;19960;-65
2022/09/23 02:05:41;;;;;;;;;;;;;;;3.00;100.00;96080.94;1031488;28;19928;-69
2022/09/23 02:06:15;;;;;;;;;;;;;;;2.98;100.00;96075.94;1039358;28;19909;-69
2022/09/23 02:06:47;;;;;;;;;;;;;;;2.98;100.00;96082.94;1027806;28;19917;-65
2022/09/23 02:07:26;;;;;;;;;;;;;;;2.97;100.00;96078.75;1027484;28;19910;-67
2022/09/23 02:08:13;;;;;;;;;;;;;;;2.96;100.00;96088.34;1043702;28;19908;-67
2022/09/23 02:08:45;;;;;;;;;;;;;;;2.95;100.00;96086.75;1039486;28;20071;-65
2022/09/23 02:09:17;;;;;;;;;;;;;;;2.92;100.00;96087.16;1035659;28;19905;-65
2022/09/23 02:09:49;;;;;;;;;;;;;;;2.91;100.00;96084.75;1035484;28;19909;-68
2022/09/23 02:10:43;;;;;;;;;;;;;;;2.91;100.00;96088.13;1037004;28;20369;-65
2022/09/23 02:11:14;;;;;;;;;;;;;;;2.89;100.00;96087.56;1031744;28;19910;-66
2022/09/23 02:11:44;;;;;;;;;;;;;;;2.88;100.00;96085.16;1031351;28;19905;-68
2022/09/23 02:12:16;;;;;;;;;;;;;;;2.87;100.00;96086.97;1031340;28;20008;-65
2022/09/23 02:12:48;;;;;;;;;;;;;;;2.86;100.00;96082.78;1031327;28;19968;-66
2022/09/23 02:13:31;;;;;;;;;;;;;;;2.86;100.00;96082.78;1035325;28;19909;-67
2022/09/23 02:14:24;;;;;;;;;;;;;;;2.85;100.00;96086.41;1031609;28;19954;-67
2022/09/23 02:15:02;;;;;;;;;;;;;;;2.85;100.00;96076.03;1039062;28;20174;-67
2022/09/23 02:15:34;;;;;;;;;;;;;;;2.84;100.00;96080.38;1031371;28;19906;-67
2022/09/23 02:16:07;;;;;;;;;;;;;;;2.85;100.00;96076.03;1031238;28;19910;-65
2022/09/23 02:16:38;;;;;;;;;;;;;;;2.85;100.00;96081.22;1027344;28;19914;-68
2022/09/23 02:17:09;;;;;;;;;;;;;;;2.85;100.00;96081.22;1031528;28;20185;-68
2022/09/23 02:17:57;;;;;;;;;;;;;;;2.85;100.00;96083.81;1031233;28;19910;-67
2022/09/23 02:18:29;;;;;;;;;;;;;;;2.87;100.00;96084.38;1027297;28;19902;-66
2022/09/23 02:19:01;;;;;;;;;;;;;;;2.88;100.00;96087.75;1031559;28;20359;-69
2022/09/23 02:19:50;;;;;;;;;;;;;;;2.87;100.00;96083.59;1031245;28;19929;-69
2022/09/23 02:20:22;;;;;;;;;;;;;;;2.92;100.00;96086.34;1035542;28;20031;-68
2022/09/23 02:20:55;;;;;;;;;;;;;;;2.91;100.00;96088.13;1035073;28;20080;-67
2022/09/23 02:21:28;;;;;;;;;;;;;;;2.90;100.00;96080.59;1035192;28;19910;-67
2022/09/23 02:22:07;;;;;;;;;;;;;;;2.89;100.00;96079.00;1031361;28;19910;-66
2022/09/23 02:22:47;;;;;;;;;;;;;;;2.92;100.00;96088.94;1028287;28;19957;-67
2022/09/23 02:23:18;;;;;;;;;;;;;;;2.91;100.00;96075.19;1035344;28;20000;-67
2022/09/23 02:23:49;;;;;;;;;;;;;;;2.93;100.00;96078.38;1031489;28;19910;-66
2022/09/23 02:24:21;;;;;;;;;;;;;;;2.93;100.00;96082.75;1032341;28;19906;-67
2022/09/23 02:24:53;;;;;;;;;;;;;;;2.91;100.00;96084.75;1031434;28;19913;-68
2022/09/23 02:25:25;;;;;;;;;;;;;;;2.91;100.00;96085.53;1029582;28;19960;-70
2022/09/23 02:25:57;;;;;;;;;;;;;;;2.92;100.00;96081.16;1027523;28;19945;-66
2022/09/23 02:26:30;;;;;;;;;;;;;;;2.93;100.00;96080.19;1027318;28;19907;-66
2022/09/23 02:27:18;;;;;;;;;;;;;;;2.93;100.00;96078.38;1027225;28;19906;-67
2022/09/23 02:27:48;;;;;;;;;;;;;;;2.93;100.00;96077.59;1031950;28;20378;-67
2022/09/23 02:28:23;;;;;;;;;;;;;;;2.92;100.00;96081.97;1035219;28;19910;-67
2022/09/23 02:29:02;;;;;;;;;;;;;;;2.92;100.00;96081.97;1027302;28;19906;-68
2022/09/23 02:29:48;;;;;;;;;;;;;;;2.91;100.00;96085.53;1037432;28;19932;-64
2022/09/23 02:30:25;;;;;;;;;;;;;;;2.92;100.00;96087.16;1034753;28;19910;-67
2022/09/23 02:31:06;;;;;;;;;;;;;;;2.91;100.00;96084.75;1033579;28;20513;-65
2022/09/23 02:31:56;;;;;;;;;;;;;;;2.90;100.00;96091.75;1035541;28;19906;-66
2022/09/23 02:32:27;;;;;;;;;;;;;;;2.90;100.00;96086.56;1035826;28;20158;-65
2022/09/23 02:33:00;;;;;;;;;;;;;;;2.88;100.00;96087.75;1037734;28;20007;-66
2022/09/23 02:33:33;;;;;;;;;;;;;;;2.87;100.00;96088.75;1027509;28;20422;-67
2022/09/23 02:34:09;;;;;;;;;;;;;;;2.87;100.00;96089.56;1027691;28;19906;-67
2022/09/23 02:34:42;;;;;;;;;;;;;;;2.87;100.00;96088.75;1035532;28;20020;-65
2022/09/23 02:35:22;;;;;;;;;;;;;;;2.87;100.00;96088.75;1035648;28;19961;-68
2022/09/23 02:35:52;;;;;;;;;;;;;;;2.86;100.00;96090.56;1023603;28;20484;-66
2022/09/23 02:36:28;;;;;;;;;;;;;;;2.86;100.00;96092.38;1029275;28;20074;-66
2022/09/23 02:36:58;;;;;;;;;;;;;;;2.86;100.00;96089.78;1027296;28;19956;-69
2022/09/23 02:37:43;;;;;;;;;;;;;;;2.86;100.00;96089.78;1032270;28;20601;-67
2022/09/23 02:38:25;;;;;;;;;;;;;;;2.83;100.00;96091.75;1031510;28;19917;-66
2022/09/23 02:38:57;;;;;;;;;;;;;;;2.84;100.00;96089.97;1031641;28;20012;-66
2022/09/23 02:39:29;;;;;;;;;;;;;;;2.82;100.00;96089.38;1031569;28;20356;-66
2022/09/23 02:40:13;;;;;;;;;;;;;;;2.83;100.00;96090.97;1035679;28;19906;-67
2022/09/23 02:40:52;;;;;;;;;;;;;;;2.81;100.00;96085.97;1031604;28;19909;-64
2022/09/23 02:41:25;;;;;;;;;;;;;;;2.81;100.00;96088.56;1034770;28;20300;-65
2022/09/23 02:41:58;;;;;;;;;;;;;;;2.83;100.00;96088.38;1027557;28;20379;-64
2022/09/23 02:42:39;;;;;;;;;;;;;;;2.82;100.00;96089.38;1035716;28;19905;-68
2022/09/23 02:43:30;;;;;;;;;;;;;;;2.82;100.00;96084.22;1035461;28;20290;-65
2022/09/23 02:44:07;;;;;;;;;;;;;;;2.79;100.00;96082.81;1031611;28;20303;-68
2022/09/23 02:44:37;;;;;;;;;;;;;;;2.80;100.00;96079.22;1031507;28;19906;-65
2022/09/23 02:45:08;;;;;;;;;;;;;;;2.80;100.00;96086.97;1027659;28;19906;-65
2022/09/23 02:45:38;;;;;;;;;;;;;;;2.81;100.00;96085.19;1035582;28;20355;-68
2022/09/23 02:46:08;;;;;;;;;;;;;;;2.80;100.00;96079.22;1043884;28;19909;-68
2022/09/23 02:46:42;;;;;;;;;;;;;;;2.80;100.00;96084.41;1034275;28;20323;-67
2022/09/23 02:47:12;;;;;;;;;;;;;;;2.79;100.00;96087.22;1027601;28;19954;-65
2022/09/23 02:47:43;;;;;;;;;;;;;;;2.79;100.00;96082.03;1035596;28;19952;-66
2022/09/23 02:48:17;;;;;;;;;;;;;;;2.79;100.00;96082.81;1035599;28;20274;-65
2022/09/23 02:48:48;;;;;;;;;;;;;;;2.79;100.00;96077.63;1035740;28;20446;-66
2022/09/23 02:49:28;;;;;;;;;;;;;;;2.80;100.00;96083.59;1039705;28;19955;-66
2022/09/23 02:49:58;;;;;;;;;;;;;;;2.79;100.00;96082.03;1037110;28;20162;-67
2022/09/23 02:50:29;;;;;;;;;;;;;;;2.78;100.00;96078.63;1031680;28;20005;-68
2022/09/23 02:51:02;;;;;;;;;;;;;;;2.79;100.00;96082.03;1027090;28;19918;-68
2022/09/23 02:51:34;;;;;;;;;;;;;;;2.78;100.00;96075.22;1032427;28;19917;-68
2022/09/23 02:52:06;;;;;;;;;;;;;;;2.77;100.00;96081.41;1035485;28;19918;-66
2022/09/23 02:52:37;;;;;;;;;;;;;;;2.77;100.00;96076.25;1031527;28;19916;-65
2022/09/23 02:53:07;;;;;;;;;;;;;;;2.76;100.00;96085.03;1031551;28;19928;-65
2022/09/23 02:53:38;;;;;;;;;;;;;;;2.75;100.00;96081.63;1035704;28;19944;-65
2022/09/23 02:54:09;;;;;;;;;;;;;;;2.73;100.00;96077.66;1035669;28;19979;-66
2022/09/23 02:54:40;;;;;;;;;;;;;;;2.71;100.00;96080.44;1027583;28;19914;-65
2022/09/23 02:55:10;;;;;;;;;;;;;;;2.71;100.00;96077.06;1039553;28;19921;-66
2022/09/23 02:55:41;;;;;;;;;;;;;;;2.70;100.00;96076.25;1035603;28;19918;-67
2022/09/23 02:56:13;;;;;;;;;;;;;;;2.69;100.00;96081.66;1023503;29;19923;-65
2022/09/23 02:56:43;;;;;;;;;;;;;;;2.70;100.00;96073.66;1033232;28;19996;-65
2022/09/23 02:57:13;;;;;;;;;;;;;;;2.70;100.00;96078.06;1035710;28;19928;-64
2022/09/23 02:57:44;;;;;;;;;;;;;;;2.68;100.00;96070.47;1035067;28;19995;-65
2022/09/23 02:58:14;;;;;;;;;;;;;;;2.68;100.00;96083.44;1032118;28;20390;-68